This is the latest recevied weather packets stored in our database for station/object N5VIS. If no packets are shown the sender has not sent any weather packets the latest 10 day(s).
| Time | Temp. | Humidity | Pressure | Rain* | Wind** | Luminosity | Snow |
|---|---|---|---|---|---|---|---|
| 1778010671 | 25.56° C | 74% | 1015.2 hPa | 0 mm | - | - | - |
| 1778010368 | 25° C | 74% | 1015.1 hPa | 0 mm | - | - | - |
| 1778010064 | 25.56° C | 75% | 1015.1 hPa | 0 mm | - | - | - |
| 1778009761 | 24.44° C | 76% | 1015.4 hPa | 0 mm | - | - | - |
| 1778009458 | 25° C | 76% | 1015.3 hPa | 0 mm | - | - | - |
| 1778009157 | 24.44° C | 75% | 1015.4 hPa | 0 mm | - | - | - |
| 1778008854 | 25° C | 75% | 1015.5 hPa | 0 mm | - | - | - |
| 1778008552 | 24.44° C | 77% | 1015.6 hPa | 0 mm | - | - | - |
| 1778008250 | 25° C | 75% | 1015.5 hPa | 0 mm | - | - | - |
| 1778007944 | 23.89° C | 78% | 1015.7 hPa | 0 mm | - | - | - |
| 1778007640 | 24.44° C | 76% | 1015.7 hPa | 0 mm | - | - | - |
| 1778007337 | 25° C | 75% | 1015.5 hPa | 0 mm | - | - | - |
| 1778007033 | 24.44° C | 78% | 1015.6 hPa | 0 mm | - | - | - |
| 1778006730 | 24.44° C | 76% | 1015.7 hPa | 0 mm | - | - | - |
| 1778006427 | 24.44° C | 77% | 1015.9 hPa | 0 mm | - | - | - |
| 1778006124 | 23.33° C | 79% | 1016 hPa | 0 mm | - | - | - |
| 1778005822 | 23.33° C | 79% | 1016.1 hPa | 0 mm | - | - | - |
| 1778005518 | 23.33° C | 79% | 1016 hPa | 0 mm | - | - | - |
| 1778005214 | 23.33° C | 78% | 1015.9 hPa | 0 mm | - | - | - |
| 1778004911 | 23.33° C | 78% | 1015.7 hPa | 0 mm | - | - | - |
| 1778004609 | 24.44° C | 77% | 1015.8 hPa | 0 mm | - | - | - |
| 1778004304 | 23.89° C | 78% | 1015.9 hPa | 0 mm | - | - | - |
| 1778004001 | 24.44° C | 77% | 1015.9 hPa | 0 mm | - | - | - |
| 1778003697 | 24.44° C | 78% | 1015.8 hPa | 0 mm | - | - | - |
| 1778003394 | 23.89° C | 78% | 1015.8 hPa | 0 mm | - | - | - |
* Rain latest hour (hover to see other rain measurements)
** Current wind speed in m/s (hover to see current wind gust speed)